sensor_id;sensor_type;location;lat;lon;timestamp;temperature;humidity
13796;SHT30;40911;51.552;9.874;2023-06-24T00:03:40;15.13;96.00
13796;SHT30;40911;51.552;9.874;2023-06-24T00:06:07;15.13;95.69
13796;SHT30;40911;51.552;9.874;2023-06-24T00:08:29;14.94;96.08
13796;SHT30;40911;51.552;9.874;2023-06-24T00:10:54;14.87;96.23
13796;SHT30;40911;51.552;9.874;2023-06-24T00:13:16;14.88;96.00
13796;SHT30;40911;51.552;9.874;2023-06-24T00:15:38;14.77;96.45
13796;SHT30;40911;51.552;9.874;2023-06-24T00:18:02;14.80;96.36
13796;SHT30;40911;51.552;9.874;2023-06-24T00:20:27;14.80;96.22
13796;SHT30;40911;51.552;9.874;2023-06-24T00:22:49;14.74;96.20
13796;SHT30;40911;51.552;9.874;2023-06-24T00:25:11;14.81;96.09
13796;SHT30;40911;51.552;9.874;2023-06-24T00:27:32;14.70;96.16
13796;SHT30;40911;51.552;9.874;2023-06-24T00:29:54;14.65;96.29
13796;SHT30;40911;51.552;9.874;2023-06-24T00:32:15;14.63;96.35
13796;SHT30;40911;51.552;9.874;2023-06-24T00:34:37;14.46;96.77
13796;SHT30;40911;51.552;9.874;2023-06-24T00:37:02;14.59;96.39
13796;SHT30;40911;51.552;9.874;2023-06-24T00:39:24;14.44;96.45
13796;SHT30;40911;51.552;9.874;2023-06-24T00:41:46;14.49;96.24
13796;SHT30;40911;51.552;9.874;2023-06-24T00:44:07;14.52;96.27
13796;SHT30;40911;51.552;9.874;2023-06-24T00:46:29;14.56;95.97
13796;SHT30;40911;51.552;9.874;2023-06-24T00:48:52;14.47;96.43
13796;SHT30;40911;51.552;9.874;2023-06-24T00:51:14;14.54;95.69
13796;SHT30;40911;51.552;9.874;2023-06-24T00:53:37;14.34;96.13
13796;SHT30;40911;51.552;9.874;2023-06-24T00:55:59;14.36;95.86
13796;SHT30;40911;51.552;9.874;2023-06-24T00:58:23;14.43;95.74
13796;SHT30;40911;51.552;9.874;2023-06-24T01:00:45;14.49;95.70
13796;SHT30;40911;51.552;9.874;2023-06-24T01:03:09;14.49;95.77
13796;SHT30;40911;51.552;9.874;2023-06-24T01:05:34;14.29;95.53
13796;SHT30;40911;51.552;9.874;2023-06-24T01:07:56;14.18;96.28
13796;SHT30;40911;51.552;9.874;2023-06-24T01:10:20;14.27;96.30
13796;SHT30;40911;51.552;9.874;2023-06-24T01:12:42;14.22;96.38
13796;SHT30;40911;51.552;9.874;2023-06-24T01:15:05;14.18;96.53
13796;SHT30;40911;51.552;9.874;2023-06-24T01:17:32;13.92;96.72
13796;SHT30;40911;51.552;9.874;2023-06-24T01:20:02;13.97;96.60
13796;SHT30;40911;51.552;9.874;2023-06-24T01:22:43;13.99;96.22
13796;SHT30;40911;51.552;9.874;2023-06-24T01:25:24;13.78;96.68
13796;SHT30;40911;51.552;9.874;2023-06-24T01:28:03;13.78;96.76
13796;SHT30;40911;51.552;9.874;2023-06-24T01:30:50;13.68;96.74
13796;SHT30;40911;51.552;9.874;2023-06-24T01:33:21;13.62;97.23
13796;SHT30;40911;51.552;9.874;2023-06-24T01:35:47;13.80;96.89
13796;SHT30;40911;51.552;9.874;2023-06-24T01:38:12;13.68;96.71
13796;SHT30;40911;51.552;9.874;2023-06-24T01:40:39;13.80;96.99
13796;SHT30;40911;51.552;9.874;2023-06-24T01:43:04;13.78;96.45
13796;SHT30;40911;51.552;9.874;2023-06-24T01:45:28;13.70;96.73
13796;SHT30;40911;51.552;9.874;2023-06-24T01:47:54;13.73;96.33
13796;SHT30;40911;51.552;9.874;2023-06-24T01:50:22;13.70;96.10
13796;SHT30;40911;51.552;9.874;2023-06-24T01:52:45;13.55;96.28
13796;SHT30;40911;51.552;9.874;2023-06-24T01:55:09;13.68;96.40
13796;SHT30;40911;51.552;9.874;2023-06-24T01:57:33;13.87;96.06
13796;SHT30;40911;51.552;9.874;2023-06-24T01:59:56;13.75;95.74
13796;SHT30;40911;51.552;9.874;2023-06-24T02:02:18;13.51;96.53
13796;SHT30;40911;51.552;9.874;2023-06-24T02:04:42;13.70;96.01
13796;SHT30;40911;51.552;9.874;2023-06-24T02:07:07;13.57;96.38
13796;SHT30;40911;51.552;9.874;2023-06-24T02:09:32;13.67;95.99
13796;SHT30;40911;51.552;9.874;2023-06-24T02:11:54;13.60;96.17
13796;SHT30;40911;51.552;9.874;2023-06-24T02:14:17;13.54;96.20
13796;SHT30;40911;51.552;9.874;2023-06-24T02:16:42;13.46;96.59
13796;SHT30;40911;51.552;9.874;2023-06-24T02:19:06;13.37;96.60
13796;SHT30;40911;51.552;9.874;2023-06-24T02:21:28;13.34;96.74
13796;SHT30;40911;51.552;9.874;2023-06-24T02:23:52;13.39;96.61
13796;SHT30;40911;51.552;9.874;2023-06-24T02:26:15;13.36;96.34
13796;SHT30;40911;51.552;9.874;2023-06-24T02:28:38;13.12;96.45
13796;SHT30;40911;51.552;9.874;2023-06-24T02:31:00;12.96;97.52
13796;SHT30;40911;51.552;9.874;2023-06-24T02:33:22;13.12;97.25
13796;SHT30;40911;51.552;9.874;2023-06-24T02:35:43;13.30;96.25
13796;SHT30;40911;51.552;9.874;2023-06-24T02:38:06;13.18;96.60
13796;SHT30;40911;51.552;9.874;2023-06-24T02:40:29;13.19;96.52
13796;SHT30;40911;51.552;9.874;2023-06-24T02:42:51;13.20;96.34
13796;SHT30;40911;51.552;9.874;2023-06-24T02:45:12;13.19;96.31
13796;SHT30;40911;51.552;9.874;2023-06-24T02:47:35;13.08;96.47
13796;SHT30;40911;51.552;9.874;2023-06-24T02:49:57;13.11;96.41
13796;SHT30;40911;51.552;9.874;2023-06-24T02:52:19;13.12;96.48
13796;SHT30;40911;51.552;9.874;2023-06-24T02:54:41;13.06;96.40
13796;SHT30;40911;51.552;9.874;2023-06-24T02:57:05;13.02;96.37
13796;SHT30;40911;51.552;9.874;2023-06-24T02:59:27;13.12;96.33
13796;SHT30;40911;51.552;9.874;2023-06-24T03:01:49;13.08;96.40
13796;SHT30;40911;51.552;9.874;2023-06-24T03:04:11;13.09;96.21
13796;SHT30;40911;51.552;9.874;2023-06-24T03:06:33;13.01;96.09
13796;SHT30;40911;51.552;9.874;2023-06-24T03:08:58;13.05;95.81
13796;SHT30;40911;51.552;9.874;2023-06-24T03:11:19;13.05;95.75
13796;SHT30;40911;51.552;9.874;2023-06-24T03:13:43;12.95;96.03
13796;SHT30;40911;51.552;9.874;2023-06-24T03:16:05;12.76;96.38
13796;SHT30;40911;51.552;9.874;2023-06-24T03:18:32;12.98;96.38
13796;SHT30;40911;51.552;9.874;2023-06-24T03:20:54;13.08;95.75
13796;SHT30;40911;51.552;9.874;2023-06-24T03:23:15;12.92;95.98
13796;SHT30;40911;51.552;9.874;2023-06-24T03:25:37;12.91;96.24
13796;SHT30;40911;51.552;9.874;2023-06-24T03:27:58;12.85;96.13
13796;SHT30;40911;51.552;9.874;2023-06-24T03:30:22;12.89;96.39
13796;SHT30;40911;51.552;9.874;2023-06-24T03:32:44;13.02;96.14
13796;SHT30;40911;51.552;9.874;2023-06-24T03:35:07;13.12;96.07
13796;SHT30;40911;51.552;9.874;2023-06-24T03:37:29;13.11;96.03
13796;SHT30;40911;51.552;9.874;2023-06-24T03:39:50;13.02;96.33
13796;SHT30;40911;51.552;9.874;2023-06-24T03:42:12;13.02;95.98
13796;SHT30;40911;51.552;9.874;2023-06-24T03:44:33;12.99;96.01
13796;SHT30;40911;51.552;9.874;2023-06-24T03:46:56;12.88;96.73
13796;SHT30;40911;51.552;9.874;2023-06-24T03:49:18;13.09;96.48
13796;SHT30;40911;51.552;9.874;2023-06-24T03:51:39;13.18;95.85
13796;SHT30;40911;51.552;9.874;2023-06-24T03:54:01;13.15;96.12
13796;SHT30;40911;51.552;9.874;2023-06-24T03:56:23;13.24;95.96
13796;SHT30;40911;51.552;9.874;2023-06-24T03:58:44;13.34;95.73
13796;SHT30;40911;51.552;9.874;2023-06-24T04:01:06;13.26;95.87
13796;SHT30;40911;51.552;9.874;2023-06-24T04:03:31;13.37;96.00
13796;SHT30;40911;51.552;9.874;2023-06-24T04:05:54;13.39;95.82
13796;SHT30;40911;51.552;9.874;2023-06-24T04:08:15;13.44;95.83
13796;SHT30;40911;51.552;9.874;2023-06-24T04:10:37;13.50;95.75
13796;SHT30;40911;51.552;9.874;2023-06-24T04:12:59;13.47;95.94
13796;SHT30;40911;51.552;9.874;2023-06-24T04:15:23;13.47;96.21
13796;SHT30;40911;51.552;9.874;2023-06-24T04:17:45;13.44;96.13
13796;SHT30;40911;51.552;9.874;2023-06-24T04:20:09;13.44;96.50
13796;SHT30;40911;51.552;9.874;2023-06-24T04:22:31;13.58;95.92
13796;SHT30;40911;51.552;9.874;2023-06-24T04:24:52;13.70;96.00
13796;SHT30;40911;51.552;9.874;2023-06-24T04:27:14;13.75;96.00
13796;SHT30;40911;51.552;9.874;2023-06-24T04:29:35;13.65;96.05
13796;SHT30;40911;51.552;9.874;2023-06-24T04:31:57;13.81;96.08
13796;SHT30;40911;51.552;9.874;2023-06-24T04:34:19;13.68;96.35
13796;SHT30;40911;51.552;9.874;2023-06-24T04:36:41;13.78;96.00
13796;SHT30;40911;51.552;9.874;2023-06-24T04:39:03;13.84;96.23
13796;SHT30;40911;51.552;9.874;2023-06-24T04:41:25;13.89;96.19
13796;SHT30;40911;51.552;9.874;2023-06-24T04:43:46;13.91;95.91
13796;SHT30;40911;51.552;9.874;2023-06-24T04:46:08;14.04;95.90
13796;SHT30;40911;51.552;9.874;2023-06-24T04:48:30;14.02;96.04
13796;SHT30;40911;51.552;9.874;2023-06-24T04:50:51;13.94;96.83
13796;SHT30;40911;51.552;9.874;2023-06-24T04:53:16;14.13;96.20
13796;SHT30;40911;51.552;9.874;2023-06-24T04:55:38;14.19;96.11
13796;SHT30;40911;51.552;9.874;2023-06-24T04:57:59;14.36;95.74
13796;SHT30;40911;51.552;9.874;2023-06-24T05:00:21;14.37;95.63
13796;SHT30;40911;51.552;9.874;2023-06-24T05:02:44;14.52;95.80
13796;SHT30;40911;51.552;9.874;2023-06-24T05:05:07;14.68;95.58
13796;SHT30;40911;51.552;9.874;2023-06-24T05:07:29;14.77;95.27
13796;SHT30;40911;51.552;9.874;2023-06-24T05:09:52;14.91;94.90
13796;SHT30;40911;51.552;9.874;2023-06-24T05:12:13;14.85;94.97
13796;SHT30;40911;51.552;9.874;2023-06-24T05:14:35;15.12;94.73
13796;SHT30;40911;51.552;9.874;2023-06-24T05:16:57;15.09;94.70
13796;SHT30;40911;51.552;9.874;2023-06-24T05:19:18;15.32;94.80
13796;SHT30;40911;51.552;9.874;2023-06-24T05:21:40;15.53;94.24
13796;SHT30;40911;51.552;9.874;2023-06-24T05:24:02;15.64;93.86
13796;SHT30;40911;51.552;9.874;2023-06-24T05:26:25;15.54;93.91
13796;SHT30;40911;51.552;9.874;2023-06-24T05:28:46;15.94;93.56
13796;SHT30;40911;51.552;9.874;2023-06-24T05:31:08;15.98;93.15
13796;SHT30;40911;51.552;9.874;2023-06-24T05:33:29;16.24;92.50
13796;SHT30;40911;51.552;9.874;2023-06-24T05:35:51;16.32;92.07
13796;SHT30;40911;51.552;9.874;2023-06-24T05:38:13;16.33;91.71
13796;SHT30;40911;51.552;9.874;2023-06-24T05:40:35;16.33;91.77
13796;SHT30;40911;51.552;9.874;2023-06-24T05:42:57;16.35;90.19
13796;SHT30;40911;51.552;9.874;2023-06-24T05:45:19;16.74;91.17
13796;SHT30;40911;51.552;9.874;2023-06-24T05:47:41;16.67;90.93
13796;SHT30;40911;51.552;9.874;2023-06-24T05:50:03;17.08;90.35
13796;SHT30;40911;51.552;9.874;2023-06-24T05:52:25;17.12;90.96
13796;SHT30;40911;51.552;9.874;2023-06-24T05:54:49;17.12;90.22
13796;SHT30;40911;51.552;9.874;2023-06-24T05:57:11;17.18;90.04
13796;SHT30;40911;51.552;9.874;2023-06-24T05:59:34;17.45;89.37
13796;SHT30;40911;51.552;9.874;2023-06-24T06:01:55;17.43;89.94
13796;SHT30;40911;51.552;9.874;2023-06-24T06:04:17;17.57;90.30
13796;SHT30;40911;51.552;9.874;2023-06-24T06:06:38;17.89;89.92
13796;SHT30;40911;51.552;9.874;2023-06-24T06:09:00;17.93;88.91
13796;SHT30;40911;51.552;9.874;2023-06-24T06:11:22;18.00;89.72
13796;SHT30;40911;51.552;9.874;2023-06-24T06:13:44;18.26;88.81
13796;SHT30;40911;51.552;9.874;2023-06-24T06:16:07;18.28;89.07
13796;SHT30;40911;51.552;9.874;2023-06-24T06:18:29;18.00;88.48
13796;SHT30;40911;51.552;9.874;2023-06-24T06:20:50;18.26;90.20
13796;SHT30;40911;51.552;9.874;2023-06-24T06:23:12;18.24;87.67
13796;SHT30;40911;51.552;9.874;2023-06-24T06:25:35;18.12;88.85
13796;SHT30;40911;51.552;9.874;2023-06-24T06:27:57;18.33;88.14
13796;SHT30;40911;51.552;9.874;2023-06-24T06:30:19;18.65;88.80
13796;SHT30;40911;51.552;9.874;2023-06-24T06:32:42;19.00;89.06
13796;SHT30;40911;51.552;9.874;2023-06-24T06:35:05;18.93;87.12
13796;SHT30;40911;51.552;9.874;2023-06-24T06:37:27;18.73;86.79
13796;SHT30;40911;51.552;9.874;2023-06-24T06:39:48;18.88;85.05
13796;SHT30;40911;51.552;9.874;2023-06-24T06:42:10;19.04;86.98
13796;SHT30;40911;51.552;9.874;2023-06-24T06:44:31;19.43;86.65
13796;SHT30;40911;51.552;9.874;2023-06-24T06:46:53;19.76;85.82
13796;SHT30;40911;51.552;9.874;2023-06-24T06:49:16;19.76;84.33
13796;SHT30;40911;51.552;9.874;2023-06-24T06:51:38;19.23;85.08
13796;SHT30;40911;51.552;9.874;2023-06-24T06:54:00;19.62;85.29
13796;SHT30;40911;51.552;9.874;2023-06-24T06:56:22;19.46;85.58
13796;SHT30;40911;51.552;9.874;2023-06-24T06:58:44;19.89;85.32
13796;SHT30;40911;51.552;9.874;2023-06-24T07:01:06;19.84;83.41
13796;SHT30;40911;51.552;9.874;2023-06-24T07:03:27;20.18;85.05
13796;SHT30;40911;51.552;9.874;2023-06-24T07:05:51;20.28;83.68
13796;SHT30;40911;51.552;9.874;2023-06-24T07:08:12;20.25;83.99
13796;SHT30;40911;51.552;9.874;2023-06-24T07:10:34;20.65;83.10
13796;SHT30;40911;51.552;9.874;2023-06-24T07:12:55;20.79;82.85
13796;SHT30;40911;51.552;9.874;2023-06-24T07:15:18;20.00;83.17
13796;SHT30;40911;51.552;9.874;2023-06-24T07:17:40;20.53;83.67
13796;SHT30;40911;51.552;9.874;2023-06-24T07:20:02;20.28;82.61
13796;SHT30;40911;51.552;9.874;2023-06-24T07:22:25;20.82;85.10
13796;SHT30;40911;51.552;9.874;2023-06-24T07:24:46;21.06;83.46
13796;SHT30;40911;51.552;9.874;2023-06-24T07:27:08;21.23;82.16
13796;SHT30;40911;51.552;9.874;2023-06-24T07:29:30;21.42;81.70
13796;SHT30;40911;51.552;9.874;2023-06-24T07:31:52;21.23;81.04
13796;SHT30;40911;51.552;9.874;2023-06-24T07:34:13;21.23;80.84
13796;SHT30;40911;51.552;9.874;2023-06-24T07:36:35;21.85;80.65
13796;SHT30;40911;51.552;9.874;2023-06-24T07:38:58;21.37;79.20
13796;SHT30;40911;51.552;9.874;2023-06-24T07:41:20;21.75;79.96
13796;SHT30;40911;51.552;9.874;2023-06-24T07:43:41;22.26;77.84
13796;SHT30;40911;51.552;9.874;2023-06-24T07:46:03;22.17;78.72
13796;SHT30;40911;51.552;9.874;2023-06-24T07:48:25;21.98;78.20
13796;SHT30;40911;51.552;9.874;2023-06-24T07:50:46;21.79;76.68
13796;SHT30;40911;51.552;9.874;2023-06-24T07:53:08;22.19;78.55
13796;SHT30;40911;51.552;9.874;2023-06-24T07:55:31;22.79;76.39
13796;SHT30;40911;51.552;9.874;2023-06-24T07:57:53;22.43;76.31
13796;SHT30;40911;51.552;9.874;2023-06-24T08:00:15;22.78;74.93
13796;SHT30;40911;51.552;9.874;2023-06-24T08:02:37;22.26;73.12
13796;SHT30;40911;51.552;9.874;2023-06-24T08:04:59;22.95;72.53
13796;SHT30;40911;51.552;9.874;2023-06-24T08:07:20;22.85;74.09
13796;SHT30;40911;51.552;9.874;2023-06-24T08:09:42;22.94;73.84
13796;SHT30;40911;51.552;9.874;2023-06-24T08:12:06;23.16;74.09
13796;SHT30;40911;51.552;9.874;2023-06-24T08:14:28;23.33;73.60
13796;SHT30;40911;51.552;9.874;2023-06-24T08:16:49;22.67;71.86
13796;SHT30;40911;51.552;9.874;2023-06-24T08:19:11;22.94;71.11
13796;SHT30;40911;51.552;9.874;2023-06-24T08:21:33;22.85;72.61
13796;SHT30;40911;51.552;9.874;2023-06-24T08:23:54;23.26;71.77
13796;SHT30;40911;51.552;9.874;2023-06-24T08:26:16;22.88;71.42
13796;SHT30;40911;51.552;9.874;2023-06-24T08:28:39;23.75;70.05
13796;SHT30;40911;51.552;9.874;2023-06-24T08:31:01;24.10;70.76
13796;SHT30;40911;51.552;9.874;2023-06-24T08:33:22;23.19;71.12
13796;SHT30;40911;51.552;9.874;2023-06-24T08:35:44;22.95;70.87
13796;SHT30;40911;51.552;9.874;2023-06-24T08:38:06;23.53;69.24
13796;SHT30;40911;51.552;9.874;2023-06-24T08:40:27;23.74;68.20
13796;SHT30;40911;51.552;9.874;2023-06-24T08:42:50;23.22;67.75
13796;SHT30;40911;51.552;9.874;2023-06-24T08:45:13;23.61;68.62
13796;SHT30;40911;51.552;9.874;2023-06-24T08:47:35;23.54;67.83
13796;SHT30;40911;51.552;9.874;2023-06-24T08:50:02;23.99;68.73
13796;SHT30;40911;51.552;9.874;2023-06-24T08:52:26;23.94;66.74
13796;SHT30;40911;51.552;9.874;2023-06-24T08:54:51;23.99;66.09
13796;SHT30;40911;51.552;9.874;2023-06-24T08:57:13;23.89;66.67
13796;SHT30;40911;51.552;9.874;2023-06-24T08:59:36;24.01;64.87
13796;SHT30;40911;51.552;9.874;2023-06-24T09:02:00;24.10;67.07
13796;SHT30;40911;51.552;9.874;2023-06-24T09:04:22;24.57;66.75
13796;SHT30;40911;51.552;9.874;2023-06-24T09:06:43;23.89;67.74
13796;SHT30;40911;51.552;9.874;2023-06-24T09:09:17;24.18;65.37
13796;SHT30;40911;51.552;9.874;2023-06-24T09:11:38;24.22;66.04
13796;SHT30;40911;51.552;9.874;2023-06-24T09:14:00;24.80;65.82
13796;SHT30;40911;51.552;9.874;2023-06-24T09:16:22;24.49;64.30
13796;SHT30;40911;51.552;9.874;2023-06-24T09:18:48;23.75;64.94
13796;SHT30;40911;51.552;9.874;2023-06-24T09:21:10;25.05;65.68
13796;SHT30;40911;51.552;9.874;2023-06-24T09:23:35;24.88;64.09
13796;SHT30;40911;51.552;9.874;2023-06-24T09:25:57;24.36;65.67
13796;SHT30;40911;51.552;9.874;2023-06-24T09:28:19;24.70;64.27
13796;SHT30;40911;51.552;9.874;2023-06-24T09:30:40;24.63;64.52
13796;SHT30;40911;51.552;9.874;2023-06-24T09:33:02;25.05;64.37
13796;SHT30;40911;51.552;9.874;2023-06-24T09:35:26;24.98;64.25
13796;SHT30;40911;51.552;9.874;2023-06-24T09:37:51;24.81;65.00
13796;SHT30;40911;51.552;9.874;2023-06-24T09:40:13;25.23;63.74
13796;SHT30;40911;51.552;9.874;2023-06-24T09:42:35;26.08;63.64
13796;SHT30;40911;51.552;9.874;2023-06-24T09:44:57;25.40;63.70
13796;SHT30;40911;51.552;9.874;2023-06-24T09:47:18;25.46;65.56
13796;SHT30;40911;51.552;9.874;2023-06-24T09:49:40;25.46;64.89
13796;SHT30;40911;51.552;9.874;2023-06-24T09:52:04;25.81;63.00
13796;SHT30;40911;51.552;9.874;2023-06-24T09:54:28;25.14;64.65
13796;SHT30;40911;51.552;9.874;2023-06-24T09:56:50;25.35;64.66
13796;SHT30;40911;51.552;9.874;2023-06-24T09:59:13;25.56;63.97
13796;SHT30;40911;51.552;9.874;2023-06-24T10:01:38;26.48;65.18
13796;SHT30;40911;51.552;9.874;2023-06-24T10:04:01;26.52;62.30
13796;SHT30;40911;51.552;9.874;2023-06-24T10:06:24;27.14;62.22
13796;SHT30;40911;51.552;9.874;2023-06-24T10:08:47;26.93;61.91
13796;SHT30;40911;51.552;9.874;2023-06-24T10:11:09;27.24;61.47
13796;SHT30;40911;51.552;9.874;2023-06-24T10:13:31;27.20;62.34
13796;SHT30;40911;51.552;9.874;2023-06-24T10:15:52;26.02;63.02
13796;SHT30;40911;51.552;9.874;2023-06-24T10:18:43;26.18;62.66
13796;SHT30;40911;51.552;9.874;2023-06-24T10:21:06;26.97;62.58
13796;SHT30;40911;51.552;9.874;2023-06-24T10:23:33;27.65;61.54
13796;SHT30;40911;51.552;9.874;2023-06-24T10:25:56;27.73;62.05
13796;SHT30;40911;51.552;9.874;2023-06-24T10:28:18;27.14;62.03
13796;SHT30;40911;51.552;9.874;2023-06-24T10:30:39;26.86;61.92
13796;SHT30;40911;51.552;9.874;2023-06-24T10:33:15;27.61;61.40
13796;SHT30;40911;51.552;9.874;2023-06-24T10:35:41;26.62;63.36
13796;SHT30;40911;51.552;9.874;2023-06-24T10:38:10;26.93;60.82
13796;SHT30;40911;51.552;9.874;2023-06-24T10:40:35;26.46;63.15
13796;SHT30;40911;51.552;9.874;2023-06-24T10:43:00;26.83;61.83
13796;SHT30;40911;51.552;9.874;2023-06-24T10:45:22;27.55;60.52
13796;SHT30;40911;51.552;9.874;2023-06-24T10:47:45;27.61;60.45
13796;SHT30;40911;51.552;9.874;2023-06-24T10:50:09;26.78;59.66
13796;SHT30;40911;51.552;9.874;2023-06-24T10:52:31;26.25;61.26
13796;SHT30;40911;51.552;9.874;2023-06-24T10:54:53;27.11;61.95
13796;SHT30;40911;51.552;9.874;2023-06-24T10:57:20;27.63;60.57
13796;SHT30;40911;51.552;9.874;2023-06-24T10:59:47;27.73;60.86
13796;SHT30;40911;51.552;9.874;2023-06-24T11:02:09;26.76;58.59
13796;SHT30;40911;51.552;9.874;2023-06-24T11:04:31;27.89;60.16
13796;SHT30;40911;51.552;9.874;2023-06-24T11:06:57;27.65;58.01
13796;SHT30;40911;51.552;9.874;2023-06-24T11:09:19;27.06;58.00
13796;SHT30;40911;51.552;9.874;2023-06-24T11:11:41;27.61;57.76
13796;SHT30;40911;51.552;9.874;2023-06-24T11:14:03;27.41;56.98
13796;SHT30;40911;51.552;9.874;2023-06-24T11:16:26;28.14;57.20
13796;SHT30;40911;51.552;9.874;2023-06-24T11:18:47;27.73;58.59
13796;SHT30;40911;51.552;9.874;2023-06-24T11:21:09;27.92;59.26
13796;SHT30;40911;51.552;9.874;2023-06-24T11:23:31;27.80;60.68
13796;SHT30;40911;51.552;9.874;2023-06-24T11:25:53;27.45;58.29
13796;SHT30;40911;51.552;9.874;2023-06-24T11:28:17;28.13;58.38
13796;SHT30;40911;51.552;9.874;2023-06-24T11:30:39;28.10;57.63
13796;SHT30;40911;51.552;9.874;2023-06-24T11:33:02;28.33;58.60
13796;SHT30;40911;51.552;9.874;2023-06-24T11:35:24;28.28;59.26
13796;SHT30;40911;51.552;9.874;2023-06-24T11:37:46;28.51;57.20
13796;SHT30;40911;51.552;9.874;2023-06-24T11:40:10;29.50;58.87
13796;SHT30;40911;51.552;9.874;2023-06-24T11:42:32;28.99;58.18
13796;SHT30;40911;51.552;9.874;2023-06-24T11:44:59;28.40;57.16
13796;SHT30;40911;51.552;9.874;2023-06-24T11:47:23;28.56;55.63
13796;SHT30;40911;51.552;9.874;2023-06-24T11:49:50;29.31;55.18
13796;SHT30;40911;51.552;9.874;2023-06-24T11:52:12;28.18;56.01
13796;SHT30;40911;51.552;9.874;2023-06-24T11:54:40;27.44;59.05
13796;SHT30;40911;51.552;9.874;2023-06-24T11:57:03;28.95;56.22
13796;SHT30;40911;51.552;9.874;2023-06-24T11:59:27;28.61;55.14
13796;SHT30;40911;51.552;9.874;2023-06-24T12:01:53;28.78;54.48
13796;SHT30;40911;51.552;9.874;2023-06-24T12:04:15;29.51;54.32
13796;SHT30;40911;51.552;9.874;2023-06-24T12:06:38;27.87;53.48
13796;SHT30;40911;51.552;9.874;2023-06-24T12:09:00;28.83;54.89
13796;SHT30;40911;51.552;9.874;2023-06-24T12:11:22;29.38;55.50
13796;SHT30;40911;51.552;9.874;2023-06-24T12:13:44;28.56;54.11
13796;SHT30;40911;51.552;9.874;2023-06-24T12:16:05;27.86;55.29
13796;SHT30;40911;51.552;9.874;2023-06-24T12:18:27;28.67;54.86
13796;SHT30;40911;51.552;9.874;2023-06-24T12:20:49;28.74;53.86
13796;SHT30;40911;51.552;9.874;2023-06-24T12:23:12;28.99;54.33
13796;SHT30;40911;51.552;9.874;2023-06-24T12:25:34;28.31;54.24
13796;SHT30;40911;51.552;9.874;2023-06-24T12:27:55;29.26;55.66
13796;SHT30;40911;51.552;9.874;2023-06-24T12:30:17;29.58;53.38
13796;SHT30;40911;51.552;9.874;2023-06-24T12:32:40;28.72;54.61
13796;SHT30;40911;51.552;9.874;2023-06-24T12:35:02;28.54;54.06
13796;SHT30;40911;51.552;9.874;2023-06-24T12:37:24;29.17;54.51
13796;SHT30;40911;51.552;9.874;2023-06-24T12:39:47;28.93;52.66
13796;SHT30;40911;51.552;9.874;2023-06-24T12:42:11;30.22;52.94
13796;SHT30;40911;51.552;9.874;2023-06-24T12:44:33;29.57;52.94
13796;SHT30;40911;51.552;9.874;2023-06-24T12:46:54;29.96;52.67
13796;SHT30;40911;51.552;9.874;2023-06-24T12:49:16;29.02;53.25
13796;SHT30;40911;51.552;9.874;2023-06-24T12:51:38;29.57;52.26
13796;SHT30;40911;51.552;9.874;2023-06-24T12:53:59;30.90;52.30
13796;SHT30;40911;51.552;9.874;2023-06-24T12:56:22;30.57;53.01
13796;SHT30;40911;51.552;9.874;2023-06-24T12:58:44;30.47;52.82
13796;SHT30;40911;51.552;9.874;2023-06-24T13:01:06;31.02;54.96
13796;SHT30;40911;51.552;9.874;2023-06-24T13:03:27;30.44;54.11
13796;SHT30;40911;51.552;9.874;2023-06-24T13:05:49;30.39;54.96
13796;SHT30;40911;51.552;9.874;2023-06-24T13:08:10;30.05;55.50
13796;SHT30;40911;51.552;9.874;2023-06-24T13:10:32;29.27;55.61
13796;SHT30;40911;51.552;9.874;2023-06-24T13:12:55;29.36;55.73
13796;SHT30;40911;51.552;9.874;2023-06-24T13:15:17;29.59;55.77
13796;SHT30;40911;51.552;9.874;2023-06-24T13:17:39;30.57;57.16
13796;SHT30;40911;51.552;9.874;2023-06-24T13:20:00;29.77;55.81
13796;SHT30;40911;51.552;9.874;2023-06-24T13:22:24;27.93;55.59
13796;SHT30;40911;51.552;9.874;2023-06-24T13:24:46;27.76;57.05
13796;SHT30;40911;51.552;9.874;2023-06-24T13:27:08;27.52;58.29
13796;SHT30;40911;51.552;9.874;2023-06-24T13:29:31;27.92;57.76
13796;SHT30;40911;51.552;9.874;2023-06-24T13:31:52;27.70;58.24
13796;SHT30;40911;51.552;9.874;2023-06-24T13:34:14;27.80;58.02
13796;SHT30;40911;51.552;9.874;2023-06-24T13:36:37;28.25;57.94
13796;SHT30;40911;51.552;9.874;2023-06-24T13:38:59;27.92;57.38
13796;SHT30;40911;51.552;9.874;2023-06-24T13:41:20;28.83;58.75
13796;SHT30;40911;51.552;9.874;2023-06-24T13:43:42;29.50;56.89
13796;SHT30;40911;51.552;9.874;2023-06-24T13:46:05;30.15;54.82
13796;SHT30;40911;51.552;9.874;2023-06-24T13:48:27;30.29;54.48
13796;SHT30;40911;51.552;9.874;2023-06-24T13:50:48;29.86;53.23
13796;SHT30;40911;51.552;9.874;2023-06-24T13:53:10;28.12;54.64
13796;SHT30;40911;51.552;9.874;2023-06-24T13:55:32;29.75;55.10
13796;SHT30;40911;51.552;9.874;2023-06-24T13:57:53;28.51;55.00
13796;SHT30;40911;51.552;9.874;2023-06-24T14:00:15;28.79;56.73
13796;SHT30;40911;51.552;9.874;2023-06-24T14:02:39;28.95;56.73
13796;SHT30;40911;51.552;9.874;2023-06-24T14:05:01;29.36;56.52
13796;SHT30;40911;51.552;9.874;2023-06-24T14:07:22;30.16;55.63
13796;SHT30;40911;51.552;9.874;2023-06-24T14:09:45;30.02;55.39
13796;SHT30;40911;51.552;9.874;2023-06-24T14:12:08;30.43;57.11
13796;SHT30;40911;51.552;9.874;2023-06-24T14:14:30;29.62;55.41
13796;SHT30;40911;51.552;9.874;2023-06-24T14:16:52;30.02;54.80
13796;SHT30;40911;51.552;9.874;2023-06-24T14:19:15;30.10;55.73
13796;SHT30;40911;51.552;9.874;2023-06-24T14:21:37;29.68;53.21
13796;SHT30;40911;51.552;9.874;2023-06-24T14:23:58;29.69;55.55
13796;SHT30;40911;51.552;9.874;2023-06-24T14:26:20;30.06;55.22
13796;SHT30;40911;51.552;9.874;2023-06-24T14:28:42;29.78;55.29
13796;SHT30;40911;51.552;9.874;2023-06-24T14:31:03;29.46;56.46
13796;SHT30;40911;51.552;9.874;2023-06-24T14:33:25;29.25;58.12
13796;SHT30;40911;51.552;9.874;2023-06-24T14:35:48;29.06;57.35
13796;SHT30;40911;51.552;9.874;2023-06-24T14:38:11;29.02;58.10
13796;SHT30;40911;51.552;9.874;2023-06-24T14:40:33;28.91;59.39
13796;SHT30;40911;51.552;9.874;2023-06-24T14:42:55;28.79;58.41
13796;SHT30;40911;51.552;9.874;2023-06-24T14:45:16;28.31;59.00
13796;SHT30;40911;51.552;9.874;2023-06-24T14:47:38;28.33;58.81
13796;SHT30;40911;51.552;9.874;2023-06-24T14:49:59;28.31;59.73
13796;SHT30;40911;51.552;9.874;2023-06-24T14:52:22;29.48;57.41
13796;SHT30;40911;51.552;9.874;2023-06-24T14:54:46;29.94;60.34
13796;SHT30;40911;51.552;9.874;2023-06-24T14:57:08;30.06;57.56
13796;SHT30;40911;51.552;9.874;2023-06-24T14:59:29;30.61;58.75
13796;SHT30;40911;51.552;9.874;2023-06-24T15:01:51;30.24;57.53
13796;SHT30;40911;51.552;9.874;2023-06-24T15:04:13;30.36;55.65